Vremea acum in Sebes - Romania

Vrei sa afli care e starea vremii acum in Alba - Romania? Dorim sa iti furnizam starea vremii pentru Alba - Romania. Starea vremii Alba - Romania pentru astazi.

Vremea acum in Sebes

Temperatura: 12 °C

Se simte ca: 11.2 °C
Innorat: 0 %
Precipitatii: 0 %
Presiune atmosferica: 1024 hPa
Umiditate: 47%
Vizibilitate: 10 km
Vantul bate din SE cu 9 km/h

Evolutia vremii in Sebes pe ore

Ora: 01:00
Senin
Temperatura: 8.6°C
Sansa de precipitatii: 0%
Ora Descriere Temp Se simte Precipitatii Umiditate Vant
00:00Senin9.1°9.1°0%44%NW 1.4 KM/H
01:00Senin8.6°8.6°0%45%NW 1.8 KM/H
02:00Senin8.2°8.2°0%45%NNW 1.8 KM/H
03:00Parțial noros7.5°7.5°0%46%NNW 1.8 KM/H
04:00Senin6.9°6.9°0%46%NNW 2.2 KM/H
05:00Parțial noros6.2°6.2°0%46%NNW 2.2 KM/H
06:00Parțial noros0%45%SW 2.5 KM/H
07:00Parțial noros7.9°7.9°0%43%ESE 2.5 KM/H
08:00Parțial noros8.7°8.7°0%41%N 2.9 KM/H
09:00Parțial noros12.2°12.2°0%35%NNE 4.3 KM/H
10:00Parțial noros15.6°15.6°0%29%NNE 6.1 KM/H
11:00Parțial noros19.1°19.1°0%23%NE 7.6 KM/H
12:00Soare20.2°20.2°0%22%NE 7.9 KM/H
13:00Parțial noros21.2°21.2°0%20%NE 8.3 KM/H
14:00Soare22.3°22.2°0%19%NE 8.6 KM/H
15:00Soare20.2°20.2°0%22%NE 8.3 KM/H
16:00Soare18°18°0%25%NE 7.6 KM/H
17:00Soare15.9°15.9°0%28%NE 7.2 KM/H
18:00Soare14.7°14.7°0%31%ESE 5.4 KM/H
19:00Senin13.4°13.4°0%34%SSW 4 KM/H
20:00Senin12.2°12.2°0%37%WNW 2.2 KM/H
21:00Parțial noros11.3°11.3°0%37%WNW 2.2 KM/H
22:00Senin10.5°10.5°0%38%WNW 2.2 KM/H
23:00Parțial noros9.6°9.6°0%39%WNW 2.2 KM/H